DTTALSZH

Guest
Details From DTTA - Carthage
To LSZH - Zurich
Flight Number -
Tags Decoded
Created
Modified
Stats Distance 654 nm / 1,211 km
Max Altitude 0 ft / 0 m
Waypoints 4
Social Downloads 2
Likes 0
Share VATSIM

Download

Looking for another format? Having issues loading an existing format? Contact us
Advertisement - Login to hide

Notes

Decoded

Route

DTTA ZH504 KLO06 LSZH

ID Type Via Altitude Latitude Longitude Leg Dist Tot Dist Heading (true) Name
O DTTA APT - 0 ft / 0 m 36.85426˚ 10.21769˚ - 0 nm - -
ZH504 FIX - 0 ft / 0 m 47.45639˚ 8.89694˚ 639 nm 639 nm 355° / 354° -
KLO06 FIX - 0 ft / 0 m 47.44790˚ 8.69241˚ 8 nm 647 nm 267° / 266° -
O LSZH APT - 0 ft / 0 m 47.45894˚ 8.53748˚ 6 nm 654 nm 276° / 276° -

Altitude Profile

Advertisement - Login to hide

Weather


0- 5 10 15 20 25 30 35+ Temperature / ° C

Clouds and Precipitation
Forecast for 2017-12-15 06:00 UTC. Updated an hour ago

Ground ~20,000 ft ~40,000 ft Winds

DTTA

Details ICAO DTTA (TUN)
Name CARTHAGE
Region Tunisia
Timezone Africa/Tunis (UTC+1.0)
Stats Elevation 22 ft / 7 m (AMSL)
Location 36.851267° 10.230027°
Runways 2
Magnetic Variation 2.403° E

METAR

DTTA 150430Z 17008KT 9999 FEW026 09/01 Q1014 NOSIG

Decode

TAF

TAF DTTA 142300Z 1500/1524 24003KT 9999 FEW026= TAF DTMB 142300Z 1500/1524 17003KT 8000 NSC BECMG 1507/1509 23012KT

Decode

Departure Runways

ID Width Length Bearing (true) Bearing (mag) Surface Threshold Offset Overrun Length
01 148 ft / 45 m 10,502 ft / 3,201 m 12.29° 9.89° Asphalt 0 ft / 0 m 197 ft / 60 m
11 148 ft / 45 m 9,345 ft / 2,848 m 112.55° 110.15° Asphalt 0 ft / 0 m 643 ft / 196 m
19 148 ft / 45 m 10,502 ft / 3,201 m 192.29° 189.89° Asphalt 0 ft / 0 m 197 ft / 60 m
29 148 ft / 45 m 9,345 ft / 2,848 m 292.57° 290.17° Asphalt 657 ft / 200 m 197 ft / 60 m

LSZH

Details ICAO LSZH (ZRH)
Name Zurich
Region Switzerland
Timezone Europe/Zurich (UTC+1.0)
Stats Elevation 1,416 ft / 432 m (AMSL)
Location 47.463489° 8.549964°
Runways 3
Magnetic Variation 2.346° E

METAR

LSZH 150420Z 21009KT 170V230 9999 FEW014 SCT030 BKN060 02/M00 Q0999 NOSIG

Decode

TAF

TAF LSZH 150225Z 1503/1609 20005KT 9999 FEW025 BKN050 TX07/1513Z TN00/1500Z TNM01/1606Z TEMPO 1503/1507 3000 -RASN BKN012 PROB40 TEMPO 1503/1506 25015G25KT BECMG 1506/1509 23008KT NSW BECMG 1602/1604 1500 SN BKN010

Decode

Destination Runways

ID Width Length Bearing (true) Bearing (mag) Surface Threshold Offset Overrun Length
10 197 ft / 60 m 8,180 ft / 2,493 m 95.98° 93.63° Concrete 0 ft / 0 m 197 ft / 60 m
14 197 ft / 60 m 10,816 ft / 3,297 m 137.30° 134.95° Concrete 492 ft / 150 m 0 ft / 0 m
16 197 ft / 60 m 12,137 ft / 3,699 m 155.00° 152.65° Concrete 0 ft / 0 m 197 ft / 60 m
28 197 ft / 60 m 8,180 ft / 2,493 m 276.01° 273.66° Concrete 0 ft / 0 m 197 ft / 60 m
32 197 ft / 60 m 10,816 ft / 3,297 m 317.32° 314.97° Concrete 0 ft / 0 m 197 ft / 60 m
34 197 ft / 60 m 12,137 ft / 3,699 m 335.01° 332.66° Concrete 1,542 ft / 470 m 0 ft / 0 m

Approach Navaids

Runway Type Ident Frequency Range Bearing (true) Bearing (mag) Slope Elevation
14 Localiser IKL 108.30 MHz 18 nm / 33 km 137.33° 134.99° - 1,460 ft / 445 m (AMSL)
14 Glidescope IKL 108.30 MHz 10 nm / 19 km 137.31° 134.97° 3.00° 1,460 ft / 445 m (AMSL)
14 DME IKL 108.30 MHz 18 nm / 33 km - - - 1,460 ft / 445 m (AMSL)
16 Localiser IZH 110.50 MHz 18 nm / 33 km 154.99° 152.64° - 1,400 ft / 427 m (AMSL)
16 Glidescope IZH 110.50 MHz 10 nm / 19 km 155.00° 152.66° 3.00° 1,400 ft / 427 m (AMSL)
16 DME IZH 110.50 MHz 18 nm / 33 km - - - 1,400 ft / 427 m (AMSL)
28 Localiser IZW 109.75 MHz 18 nm / 33 km 276.00° 273.65° - 1,416 ft / 432 m (AMSL)
28 Glidescope IZW 109.75 MHz 10 nm / 19 km 276.86° 274.52° 3.30° 1,416 ft / 432 m (AMSL)
28 DME IZW 109.75 MHz 18 nm / 33 km - - - 1,416 ft / 432 m (AMSL)
34 Localiser IZS 110.75 MHz 18 nm / 33 km 335.06° 332.71° - 1,416 ft / 432 m (AMSL)
34 Glidescope IZS 110.75 MHz 10 nm / 19 km 335.00° 332.66° 3.30° 1,416 ft / 432 m (AMSL)
34 DME IZS 110.75 MHz 18 nm / 33 km - - - 1,410 ft / 430 m (AMSL)

Popular Alternatives